< < Back
Terminal Aerodrome Forecast


Current Version              Previous Versions:   1  2  3  4  5  6  7  8  9  

Terminal Aerodrome Forecast

800
FTUS42 KMLB 230400 AAA
TAFDAB
TAF AMD
KDAB 230405Z 2304/2324 10010G18KT P6SM VCSH SCT025 BKN035 OVC050
     FM231500 16013G20KT P6SM SCT015 BKN035
      TEMPO 2315/2318 BKN025=



Latest METAR

145
SAUS80 KWBC 230800 RRB
MTRDAB
METAR KDAB 230753Z 13006KT 7SM -RA BKN021 OVC029 22/20 A3005 RMK AO2
SLP173 BKN V OVC P0001 T02170200


USA.gov is the U.S. government's official web portal to all federal, state and local government web resources and services.